Time;durP1;ratioP1;P1;durP2;ratioP2;P2;SDS_P1;SDS_P2;PMS_P1;PMS_P2;Temp;Humidity;BMP_temperature;BMP_pressure;BME280_temperature;BME280_humidity;BME280_pressure;Samples;Min_cycle;Max_cycle;Signal;HPM_P1;HPM_P2
2022/01/22 00:00:47;;;;;;;35.72;12.35;;;;;;;3.11;98.40;103016.56;5020585;28;20480;-69
2022/01/22 00:03:13;;;;;;;29.83;13.02;;;;;;;3.03;98.50;103022.81;5007396;28;20035;-69
2022/01/22 00:05:42;;;;;;;28.67;12.18;;;;;;;3.10;98.03;103026.84;5018826;28;20033;-69
2022/01/22 00:08:08;;;;;;;28.90;13.27;;;;;;;3.05;98.20;103028.72;5003870;28;20037;-69
2022/01/22 00:10:35;;;;;;;29.80;12.60;;;;;;;3.04;98.36;103034.78;5014953;28;20039;-69
2022/01/22 00:15:28;;;;;;;38.25;13.85;;;;;;;3.01;98.08;103032.31;5016711;28;20034;-69
2022/01/22 00:17:55;;;;;;;33.35;12.95;;;;;;;3.06;98.14;103033.00;5021287;28;20302;-69
2022/01/22 00:20:24;;;;;;;39.17;12.88;;;;;;;3.09;97.97;103040.59;5020359;28;20096;-69
2022/01/22 00:22:51;;;;;;;35.83;12.60;;;;;;;3.18;97.03;103052.22;5021778;28;20048;-69
2022/01/22 00:25:19;;;;;;;37.17;13.63;;;;;;;3.24;97.35;103044.31;5021710;28;20553;-68
2022/01/22 00:27:47;;;;;;;33.53;12.10;;;;;;;3.17;96.75;103033.47;4997883;28;20047;-68
2022/01/22 00:30:16;;;;;;;37.85;12.02;;;;;;;3.18;97.39;103045.38;5018369;28;20034;-68
2022/01/22 00:32:42;;;;;;;25.90;11.50;;;;;;;3.21;96.64;103047.00;5017881;28;20033;-69
2022/01/22 00:35:09;;;;;;;28.95;12.05;;;;;;;3.23;97.06;103045.22;5010810;28;20032;-69
2022/01/22 00:37:41;;;;;;;30.27;11.80;;;;;;;3.08;96.80;103047.41;5020985;28;20496;-69
2022/01/22 00:40:10;;;;;;;36.15;13.30;;;;;;;3.30;96.87;103044.13;5021048;28;20268;-68
2022/01/22 00:42:37;;;;;;;32.78;13.05;;;;;;;3.19;96.59;103039.38;5025157;28;20041;-68
2022/01/22 00:45:02;;;;;;;32.83;11.35;;;;;;;3.17;96.86;103043.72;5025605;28;20040;-69
2022/01/22 00:47:28;;;;;;;37.35;12.68;;;;;;;3.24;97.25;103040.06;5011906;28;20209;-69
2022/01/22 00:49:54;;;;;;;34.15;12.25;;;;;;;3.22;97.45;103044.41;5022737;28;20029;-69
2022/01/22 00:52:21;;;;;;;38.00;13.65;;;;;;;3.15;97.69;103053.19;5025252;28;20526;-69
2022/01/22 00:54:47;;;;;;;33.08;13.55;;;;;;;3.09;98.19;103048.28;5009228;28;20034;-69
2022/01/22 00:57:13;;;;;;;37.50;14.73;;;;;;;3.00;98.54;103046.03;5007740;28;20045;-69
2022/01/22 00:59:38;;;;;;;36.95;14.32;;;;;;;3.03;99.16;103054.44;5030039;28;20059;-69
2022/01/22 01:02:04;;;;;;;44.50;15.10;;;;;;;3.20;98.79;103053.88;5021944;28;20045;-69
2022/01/22 01:04:34;;;;;;;33.53;14.27;;;;;;;3.06;98.95;103056.06;5023378;28;20029;-69
2022/01/22 01:06:59;;;;;;;47.15;16.33;;;;;;;3.00;99.30;103048.59;5007756;28;20269;-69
2022/01/22 01:09:25;;;;;;;34.05;15.88;;;;;;;2.93;99.79;103048.78;4991254;28;20041;-69
2022/01/22 01:11:56;;;;;;;36.28;15.82;;;;;;;3.00;100.00;103041.72;5009310;28;20029;-68
2022/01/22 01:14:36;;;;;;;38.15;16.85;;;;;;;3.02;100.00;103045.06;5005141;28;20116;-68
2022/01/22 01:35:46;;;;;;;48.15;22.10;;;;;;;2.90;100.00;103030.94;5003234;28;20042;-68
2022/01/22 01:38:12;;;;;;;46.30;22.30;;;;;;;2.91;100.00;103039.47;4999120;28;20045;-69
2022/01/22 01:40:42;;;;;;;45.65;22.40;;;;;;;2.84;100.00;103043.13;5029603;23;20392;-66
2022/01/22 01:43:20;;;;;;;53.40;21.88;;;;;;;2.83;100.00;103044.03;5022779;28;20041;-66
2022/01/22 01:45:54;;;;;;;60.75;23.15;;;;;;;2.81;100.00;103038.94;5007712;28;20045;-66
2022/01/22 01:48:25;;;;;;;55.63;24.25;;;;;;;2.87;100.00;103043.84;5025125;28;20066;-66
2022/01/22 01:50:51;;;;;;;54.20;25.60;;;;;;;2.97;100.00;103043.56;5029081;28;20032;-65
2022/01/22 01:54:14;;;;;;;54.55;25.45;;;;;;;2.93;100.00;103037.69;5039325;28;20058;-66
2022/01/22 01:57:25;;;;;;;50.90;24.52;;;;;;;2.97;100.00;103044.38;5031555;28;20048;-66
2022/01/22 01:58:54;;;;;;;60.88;25.75;;;;;;;2.91;100.00;103040.28;5027718;28;20456;-65
2022/01/22 02:01:20;;;;;;;70.20;27.80;;;;;;;2.88;100.00;103037.00;5026695;28;20052;-65
2022/01/22 02:03:49;;;;;;;55.30;26.77;;;;;;;2.83;100.00;103037.16;5042447;28;20399;-66
2022/01/22 02:06:19;;;;;;;49.33;26.10;;;;;;;2.87;100.00;103041.28;5024198;28;20425;-66
2022/01/22 02:08:45;;;;;;;55.88;26.33;;;;;;;2.96;100.00;103029.91;5026801;28;20166;-66
2022/01/22 02:11:20;;;;;;;54.90;27.75;;;;;;;2.94;100.00;103034.25;5023192;28;20513;-66
2022/01/22 02:23:29;;;;;;;54.30;27.38;;;;;;;2.84;100.00;103033.69;5014825;28;20073;-65
2022/01/22 02:25:32;;;;;;;61.67;26.63;;;;;;;2.98;100.00;103042.69;5018319;28;20037;-65
2022/01/22 02:28:00;;;;;;;63.38;26.67;;;;;;;3.00;100.00;103028.06;5023282;28;20036;-66
2022/01/22 02:30:33;;;;;;;55.70;27.70;;;;;;;2.99;100.00;103039.22;5044114;28;20490;-66
2022/01/22 02:33:41;;;;;;;51.58;27.33;;;;;;;3.02;100.00;103027.13;5012748;28;20071;-66
2022/01/22 02:36:18;;;;;;;61.45;29.42;;;;;;;3.01;100.00;103035.69;5025005;28;20032;-66
2022/01/22 02:39:03;;;;;;;64.53;27.17;;;;;;;3.01;100.00;103020.31;5043553;28;20048;-65
2022/01/22 02:41:33;;;;;;;57.53;27.45;;;;;;;2.89;100.00;103020.75;5043368;28;20040;-65
2022/01/22 02:44:00;;;;;;;63.55;28.17;;;;;;;2.95;100.00;103028.22;5020353;28;20036;-65
2022/01/22 02:46:28;;;;;;;58.60;26.92;;;;;;;2.87;100.00;103018.22;5020549;28;20029;-66
2022/01/22 02:48:56;;;;;;;52.67;27.77;;;;;;;2.91;100.00;103011.28;5020323;28;20072;-65
2022/01/22 02:51:26;;;;;;;65.72;27.02;;;;;;;3.00;100.00;103020.38;5023168;28;20024;-66
2022/01/22 02:53:57;;;;;;;62.88;26.95;;;;;;;3.01;100.00;103012.63;5025082;28;20036;-66
2022/01/22 02:56:24;;;;;;;55.35;28.02;;;;;;;2.93;100.00;103017.19;5035547;28;20403;-66
2022/01/22 02:58:51;;;;;;;68.75;28.20;;;;;;;2.93;100.00;103020.56;5024588;28;20786;-65
2022/01/22 03:01:18;;;;;;;74.50;28.48;;;;;;;2.97;100.00;103018.75;5021778;28;20068;-66
2022/01/22 03:03:48;;;;;;;60.05;26.45;;;;;;;2.96;100.00;103016.22;5021489;28;20033;-65
2022/01/22 03:06:14;;;;;;;62.45;28.35;;;;;;;3.02;100.00;103018.59;5042206;28;20033;-66
2022/01/22 03:08:42;;;;;;;67.20;28.98;;;;;;;3.06;100.00;103015.88;5025624;28;20247;-66
2022/01/22 03:11:17;;;;;;;57.08;26.90;;;;;;;3.06;100.00;103010.75;5038782;28;20060;-65
2022/01/22 03:16:31;;;;;;;59.75;28.00;;;;;;;2.97;100.00;103016.19;5037333;28;20512;-65
2022/01/22 03:19:11;;;;;;;58.00;28.08;;;;;;;3.00;100.00;103013.53;5026648;28;20608;-65
2022/01/22 03:21:41;;;;;;;59.28;28.52;;;;;;;3.10;100.00;103014.03;5023789;28;20036;-66
2022/01/22 03:29:40;;;;;;;58.53;27.52;;;;;;;3.05;100.00;103023.63;5044144;28;20624;-66
2022/01/22 03:32:11;;;;;;;65.90;27.55;;;;;;;3.04;100.00;103027.06;5026280;28;20032;-65
2022/01/22 03:34:54;;;;;;;58.30;25.73;;;;;;;3.13;100.00;103024.19;5023072;28;20047;-65
2022/01/22 03:37:22;;;;;;;51.72;26.70;;;;;;;3.15;100.00;103019.03;5017582;28;20760;-66
2022/01/22 03:39:51;;;;;;;48.88;26.17;;;;;;;3.20;100.00;103019.69;5040986;28;20032;-66
2022/01/22 03:42:17;;;;;;;56.42;26.73;;;;;;;3.19;100.00;103030.84;5023574;28;20091;-66
2022/01/22 03:44:43;;;;;;;55.38;26.75;;;;;;;3.10;100.00;103032.00;5024269;28;20061;-66
2022/01/22 03:47:09;;;;;;;56.95;27.65;;;;;;;3.12;100.00;103036.16;5009797;28;20072;-66
2022/01/22 03:49:35;;;;;;;68.22;26.38;;;;;;;3.20;100.00;103037.63;5023000;28;20679;-65
2022/01/22 03:52:03;;;;;;;49.40;25.98;;;;;;;3.11;100.00;103036.25;5006318;28;20671;-65
2022/01/22 03:54:29;;;;;;;60.25;25.92;;;;;;;3.03;100.00;103033.09;5010468;28;20045;-65
2022/01/22 03:56:55;;;;;;;55.50;26.00;;;;;;;3.16;100.00;103039.47;5018968;28;20580;-66
2022/01/22 03:59:30;;;;;;;56.83;26.48;;;;;;;3.11;100.00;103033.69;5041659;28;20403;-66
2022/01/22 04:02:51;;;;;;;61.60;26.52;;;;;;;3.12;100.00;103032.78;5044502;28;20043;-65
2022/01/22 04:05:04;;;;;;;54.05;26.88;;;;;;;3.21;100.00;103040.16;5041190;28;20034;-65
2022/01/22 04:10:18;;;;;;;53.25;26.05;;;;;;;3.11;100.00;103036.25;5041250;28;20036;-65
2022/01/22 04:12:52;;;;;;;53.22;27.13;;;;;;;3.27;100.00;103041.66;5025440;28;20032;-66
2022/01/22 04:15:22;;;;;;;53.30;25.45;;;;;;;3.22;100.00;103035.84;5044677;28;20089;-65
2022/01/22 04:25:50;;;;;;;63.47;28.08;;;;;;;3.18;100.00;103034.28;5028679;28;20483;-66
2022/01/22 04:28:16;;;;;;;56.00;26.80;;;;;;;3.18;100.00;103031.72;5024691;28;20037;-66
2022/01/22 04:30:41;;;;;;;59.97;28.25;;;;;;;3.26;100.00;103035.69;5027142;28;20082;-66
2022/01/22 04:33:07;;;;;;;54.90;26.88;;;;;;;3.28;100.00;103036.47;5026380;28;20392;-66
2022/01/22 04:35:33;;;;;;;49.92;25.80;;;;;;;3.31;100.00;103036.38;5028090;28;20041;-66
2022/01/22 04:37:59;;;;;;;64.63;27.33;;;;;;;3.21;100.00;103031.63;5042893;28;20494;-66
2022/01/22 04:40:25;;;;;;;68.20;27.50;;;;;;;3.28;100.00;103033.91;5039406;28;20056;-66
2022/01/22 04:42:51;;;;;;;59.90;26.70;;;;;;;3.28;100.00;103035.66;5045130;28;20039;-66
2022/01/22 04:45:31;;;;;;;58.92;26.25;;;;;;;3.35;100.00;103029.41;5045738;28;20032;-65
2022/01/22 04:55:46;;;;;;;60.15;27.80;;;;;;;3.38;100.00;103026.72;5023413;28;20041;-66
2022/01/22 04:58:12;;;;;;;55.03;27.83;;;;;;;3.29;100.00;103025.31;5028875;28;20036;-66
2022/01/22 05:00:42;;;;;;;66.90;29.65;;;;;;;3.24;100.00;103039.19;5026261;28;20156;-65
2022/01/22 05:03:08;;;;;;;56.45;27.27;;;;;;;3.28;100.00;103025.41;5038744;28;20043;-66
2022/01/22 05:06:09;;;;;;;61.42;29.20;;;;;;;3.35;100.00;103033.69;4979252;28;20363;-66
2022/01/22 05:08:50;;;;;;;55.38;27.02;;;;;;;3.41;100.00;103031.75;5035310;28;20033;-66
2022/01/22 05:11:19;;;;;;;55.80;27.15;;;;;;;3.39;100.00;103030.13;5044476;28;20068;-66
2022/01/22 05:13:47;;;;;;;53.95;28.83;;;;;;;3.45;100.00;103033.31;5027178;28;20410;-65
2022/01/22 05:16:16;;;;;;;55.58;27.38;;;;;;;3.43;100.00;103029.97;5037736;28;20037;-65
2022/01/22 05:19:01;;;;;;;52.45;28.42;;;;;;;3.41;100.00;103026.63;5010035;28;20039;-66
2022/01/22 05:21:31;;;;;;;56.88;26.48;;;;;;;3.37;100.00;103025.06;5030058;28;20040;-66
2022/01/22 05:24:00;;;;;;;65.35;27.90;;;;;;;3.46;100.00;103027.28;5043908;28;20074;-66
2022/01/22 05:37:05;;;;;;;58.47;28.15;;;;;;;3.41;100.00;103031.75;5029337;28;20043;-66
2022/01/22 05:39:33;;;;;;;56.15;25.08;;;;;;;3.47;100.00;103035.84;5026986;28;20055;-65
2022/01/22 05:42:01;;;;;;;57.95;28.65;;;;;;;3.46;100.00;103037.53;5037343;28;20043;-65
2022/01/22 05:44:31;;;;;;;53.15;26.65;;;;;;;3.46;100.00;103041.84;5029537;28;20308;-66
2022/01/22 05:47:04;;;;;;;55.08;26.58;;;;;;;3.53;100.00;103035.59;5042724;28;20041;-65
2022/01/22 05:49:33;;;;;;;63.97;27.55;;;;;;;3.50;100.00;103039.13;5020375;28;20033;-66
2022/01/22 05:52:02;;;;;;;52.70;27.02;;;;;;;3.47;100.00;103039.22;5025699;28;21002;-66
2022/01/22 05:59:44;;;;;;;58.95;27.48;;;;;;;3.42;100.00;103047.97;5026989;28;20040;-66
2022/01/22 06:02:15;;;;;;;57.92;27.17;;;;;;;3.45;100.00;103041.00;5026404;28;20090;-65
2022/01/22 06:04:46;;;;;;;67.50;28.25;;;;;;;3.47;100.00;103041.78;5042148;28;20119;-65
2022/01/22 06:07:15;;;;;;;56.30;27.17;;;;;;;3.56;100.00;103048.34;5007996;28;20036;-65
2022/01/22 06:10:03;;;;;;;52.38;27.05;;;;;;;3.49;100.00;103041.75;5020588;28;20044;-66
2022/01/22 06:14:58;;;;;;;60.38;27.63;;;;;;;3.52;100.00;103046.75;5043971;28;20510;-65
2022/01/22 06:17:24;;;;;;;50.97;26.15;;;;;;;3.57;100.00;103042.28;5025957;28;20064;-66
2022/01/22 06:19:55;;;;;;;55.95;26.30;;;;;;;3.47;100.00;103039.22;5023341;28;20094;-66
2022/01/22 06:22:22;;;;;;;127.38;45.45;;;;;;;3.48;100.00;103038.34;5026706;28;20055;-66
2022/01/22 06:24:48;;;;;;;130.23;47.17;;;;;;;3.58;100.00;103038.84;5022045;28;20483;-66
2022/01/22 06:27:14;;;;;;;120.18;51.75;;;;;;;3.64;100.00;103035.22;5044324;28;20566;-66
2022/01/22 06:29:41;;;;;;;85.80;39.95;;;;;;;3.61;100.00;103043.03;5029046;28;20041;-66
2022/01/22 06:32:09;;;;;;;75.70;34.45;;;;;;;3.47;100.00;103051.22;5019598;28;20331;-66
2022/01/22 06:34:36;;;;;;;100.07;46.83;;;;;;;3.48;100.00;103050.31;5008361;28;20038;-66
2022/01/22 06:37:02;;;;;;;115.75;54.63;;;;;;;3.55;100.00;103043.25;5035294;28;20521;-66
2022/01/22 06:39:41;;;;;;;113.28;52.65;;;;;;;3.54;100.00;103049.25;5024190;28;20029;-66
2022/01/22 06:42:34;;;;;;;98.43;45.75;;;;;;;3.50;100.00;103061.38;5025911;28;20156;-66
2022/01/22 06:45:20;;;;;;;83.00;41.03;;;;;;;3.54;100.00;103072.34;5042476;28;20394;-66
2022/01/22 06:48:00;;;;;;;65.80;31.92;;;;;;;3.54;100.00;103067.22;5023818;28;20064;-66
2022/01/22 06:50:28;;;;;;;73.18;33.65;;;;;;;3.53;100.00;103084.34;5022503;28;20041;-66
2022/01/22 06:52:58;;;;;;;63.42;35.08;;;;;;;3.57;100.00;103085.91;5044347;28;20190;-66
2022/01/22 06:55:46;;;;;;;63.50;30.20;;;;;;;3.61;100.00;103082.34;5021484;28;20494;-66
2022/01/22 06:58:18;;;;;;;63.17;28.42;;;;;;;3.60;100.00;103090.09;5024826;28;20047;-66
2022/01/22 07:00:50;;;;;;;63.60;32.55;;;;;;;3.62;100.00;103089.16;5020552;28;20503;-65
2022/01/22 07:03:36;;;;;;;68.60;31.27;;;;;;;3.57;100.00;103090.22;5028143;28;21417;-65
2022/01/22 07:06:22;;;;;;;139.52;62.33;;;;;;;3.59;100.00;103091.81;5019799;28;20105;-65
2022/01/22 07:08:48;;;;;;;122.47;54.05;;;;;;;3.61;100.00;103091.78;5022184;28;20075;-65
2022/01/22 07:11:17;;;;;;;78.28;38.83;;;;;;;3.63;100.00;103093.38;5024654;28;20086;-65
2022/01/22 07:13:45;;;;;;;92.97;42.63;;;;;;;3.54;100.00;103103.97;5038467;28;20109;-66
2022/01/22 07:16:12;;;;;;;83.07;37.90;;;;;;;3.51;100.00;103102.34;5042603;28;20108;-65
2022/01/22 07:18:38;;;;;;;74.30;34.60;;;;;;;3.48;100.00;103106.75;5024707;28;20055;-65
2022/01/22 07:21:23;;;;;;;70.68;33.20;;;;;;;3.55;100.00;103108.22;5037182;28;20409;-65
2022/01/22 07:26:24;;;;;;;74.90;33.03;;;;;;;3.64;100.00;103115.59;5032832;28;20032;-66
2022/01/22 07:28:57;;;;;;;77.87;37.27;;;;;;;3.69;100.00;103126.53;5020392;28;20087;-66
2022/01/22 07:31:26;;;;;;;75.82;36.70;;;;;;;3.57;100.00;103129.53;5042547;28;20111;-66
2022/01/22 07:33:53;;;;;;;73.90;36.63;;;;;;;3.66;100.00;103115.56;5025474;28;20052;-66
2022/01/22 07:36:20;;;;;;;71.90;33.72;;;;;;;3.73;100.00;103118.72;5025279;28;20542;-66
2022/01/22 07:38:49;;;;;;;80.15;36.20;;;;;;;3.60;100.00;103131.13;5038932;28;20037;-66
2022/01/22 07:41:16;;;;;;;73.00;34.45;;;;;;;3.60;100.00;103133.72;5061445;23;20388;-78
2022/01/22 07:44:05;;;;;;;76.07;34.78;;;;;;;3.54;100.00;103137.31;4999611;28;20060;-78
2022/01/22 07:46:44;;;;;;;86.07;37.90;;;;;;;3.58;100.00;103130.34;5015139;28;20059;-78
2022/01/22 07:49:20;;;;;;;;;;;;;;;3.61;100.00;103133.66;5017179;28;20025;-78
2022/01/22 07:51:49;;;;;;;81.10;38.10;;;;;;;3.59;100.00;103125.19;5017790;28;20019;-78
2022/01/22 07:54:15;;;;;;;76.60;37.25;;;;;;;3.62;100.00;103127.66;5005545;28;20199;-79
2022/01/22 07:56:40;;;;;;;91.03;38.83;;;;;;;3.61;100.00;103125.13;5022656;28;20037;-79
2022/01/22 07:59:07;;;;;;;75.32;36.50;;;;;;;3.55;100.00;103128.75;5007338;28;20022;-79
2022/01/22 08:01:37;;;;;;;87.40;38.17;;;;;;;3.72;100.00;103123.03;5006473;28;20060;-78
2022/01/22 08:04:29;;;;;;;74.80;36.45;;;;;;;3.63;100.00;103124.19;5010508;28;20052;-78
2022/01/22 08:06:58;;;;;;;75.55;34.05;;;;;;;3.61;100.00;103141.34;5039580;28;20092;-78
2022/01/22 08:09:28;;;;;;;84.78;36.35;;;;;;;3.62;100.00;103137.91;5039082;28;20076;-79
2022/01/22 08:11:59;;;;;;;87.30;38.00;;;;;;;3.64;100.00;103143.00;5034027;28;20033;-79
2022/01/22 08:14:25;;;;;;;78.88;35.10;;;;;;;3.62;100.00;103139.66;5020395;28;20033;-78
2022/01/22 08:16:51;;;;;;;82.00;36.60;;;;;;;3.65;100.00;103144.66;5018816;28;20043;-79
2022/01/22 08:19:19;;;;;;;85.28;36.08;;;;;;;3.60;100.00;103142.25;5053009;28;20061;-79
2022/01/22 08:21:46;;;;;;;90.13;38.35;;;;;;;3.62;100.00;103150.75;5002674;28;20564;-79
2022/01/22 08:24:41;;;;;;;85.68;37.20;;;;;;;3.64;100.00;103150.69;4971218;28;20604;-79
2022/01/22 08:27:35;;;;;;;78.93;36.35;;;;;;;3.68;100.00;103150.53;5017170;28;20033;-79
2022/01/22 08:30:01;;;;;;;80.43;36.95;;;;;;;3.67;100.00;103158.25;5047442;28;20025;-79
2022/01/22 08:37:51;;;;;;;82.50;36.50;;;;;;;3.80;100.00;103138.97;5022885;28;20136;-78
2022/01/22 08:40:17;;;;;;;81.38;37.75;;;;;;;3.76;100.00;103128.88;5017019;28;20026;-78
2022/01/22 08:42:45;;;;;;;79.38;38.33;;;;;;;3.85;100.00;103136.25;5000297;28;20026;-79
2022/01/22 08:45:12;;;;;;;91.47;38.03;;;;;;;3.74;100.00;103134.06;5018810;28;20030;-79
2022/01/22 08:47:39;;;;;;;82.28;38.60;;;;;;;3.66;100.00;103147.16;5003879;28;20040;-78
2022/01/22 08:50:06;;;;;;;90.03;39.33;;;;;;;3.67;100.00;103148.00;5015689;28;20029;-79
2022/01/22 08:52:35;;;;;;;87.65;38.97;;;;;;;3.69;100.00;103151.34;5022229;28;20130;-78
2022/01/22 08:55:02;;;;;;;87.70;37.30;;;;;;;3.73;100.00;103150.38;5019043;28;20443;-78
2022/01/22 08:57:29;;;;;;;88.88;37.88;;;;;;;3.78;100.00;103143.31;4997922;28;20029;-79
2022/01/22 09:00:15;;;;;;;89.60;38.33;;;;;;;3.85;100.00;103138.84;5023382;28;20080;-79
2022/01/22 09:02:48;;;;;;;85.43;38.55;;;;;;;3.89;100.00;103145.53;5001303;28;20037;-79
2022/01/22 09:05:41;;;;;;;86.47;39.33;;;;;;;3.89;100.00;103145.53;5008893;28;20032;-79
2022/01/22 09:08:33;;;;;;;86.18;38.72;;;;;;;3.87;100.00;103150.69;5007283;28;20045;-79
2022/01/22 09:11:19;;;;;;;89.05;38.83;;;;;;;3.93;100.00;103146.25;5017755;28;20030;-78
2022/01/22 09:14:01;;;;;;;86.85;36.95;;;;;;;3.89;100.00;103150.66;5017324;28;20041;-79
2022/01/22 09:16:38;;;;;;;85.00;37.22;;;;;;;4.02;100.00;103151.06;5004798;28;20261;-78
2022/01/22 09:19:08;;;;;;;82.72;37.72;;;;;;;3.99;100.00;103151.97;5002841;28;20053;-79
2022/01/22 09:21:36;;;;;;;88.30;36.42;;;;;;;4.02;100.00;103157.03;5019382;28;20139;-78
2022/01/22 09:24:01;;;;;;;78.85;34.15;;;;;;;4.04;100.00;103160.38;5008740;28;20037;-79
2022/01/22 09:26:28;;;;;;;86.15;38.75;;;;;;;4.04;100.00;103155.22;4998764;28;20030;-79
2022/01/22 09:28:56;;;;;;;88.53;35.15;;;;;;;4.05;100.00;103164.63;5009505;28;20049;-78
2022/01/22 09:31:23;;;;;;;91.35;38.40;;;;;;;4.08;100.00;103167.06;4993890;28;20034;-79
2022/01/22 09:33:49;;;;;;;83.93;34.85;;;;;;;4.10;100.00;103172.16;5019325;28;20033;-78
2022/01/22 09:36:33;;;;;;;82.13;34.75;;;;;;;4.21;100.00;103164.88;5033581;28;20060;-79
2022/01/22 09:39:18;;;;;;;81.20;34.85;;;;;;;4.17;100.00;103175.34;5021197;28;20431;-79
2022/01/22 09:41:52;;;;;;;83.70;35.65;;;;;;;4.22;100.00;103176.84;5037302;28;20048;-79
2022/01/22 09:44:46;;;;;;;76.50;34.95;;;;;;;4.20;100.00;103178.63;5003095;28;20033;-79
2022/01/22 09:47:45;;;;;;;77.38;34.45;;;;;;;4.31;100.00;103177.38;5005562;28;20037;-79
2022/01/22 09:50:33;;;;;;;;;;;;;;;4.28;100.00;103178.34;5015584;28;20051;-78
2022/01/22 09:53:19;;;;;;;81.40;34.78;;;;;;;4.39;100.00;103186.50;5015909;28;19923;-79
2022/01/22 09:56:08;;;;;;;81.30;35.00;;;;;;;4.32;100.00;103190.19;5023803;28;20083;-79
2022/01/22 09:59:09;;;;;;;79.13;33.10;;;;;;;4.44;100.00;103186.31;5017910;28;20112;-79
2022/01/22 10:02:07;;;;;;;71.93;31.35;;;;;;;4.46;100.00;103185.38;5034321;28;20045;-79
2022/01/22 10:04:41;;;;;;;75.25;31.20;;;;;;;4.48;100.00;103182.72;5013121;28;20057;-80
2022/01/22 10:07:26;;;;;;;61.55;29.50;;;;;;;4.67;100.00;103182.84;5019642;28;20091;-79
2022/01/22 10:10:11;;;;;;;83.03;35.33;;;;;;;4.86;100.00;103170.97;5035649;28;20041;-79
2022/01/22 10:12:52;;;;;;;68.50;30.25;;;;;;;4.85;100.00;103171.84;5039806;28;20045;-79
2022/01/22 10:15:34;;;;;;;;;;;;;;;4.91;100.00;103180.25;5034883;28;20045;-78
2022/01/22 10:18:02;;;;;;;69.10;30.98;;;;;;;4.95;100.00;103177.47;5016343;28;20338;-78
2022/01/22 10:20:37;;;;;;;101.13;41.58;;;;;;;5.01;100.00;103178.97;5013445;28;20037;-79
2022/01/22 10:23:04;;;;;;;115.40;45.53;;;;;;;5.10;100.00;103180.34;5030788;28;20033;-78
2022/01/22 10:25:40;;;;;;;73.28;34.15;;;;;;;5.07;100.00;103182.13;5018307;28;20057;-79
2022/01/22 10:28:09;;;;;;;93.82;40.05;;;;;;;5.01;100.00;103169.53;5009557;28;20384;-80
2022/01/22 10:30:36;;;;;;;78.25;34.58;;;;;;;5.03;100.00;103174.63;5011207;28;20049;-79
2022/01/22 10:33:35;;;;;;;121.25;51.80;;;;;;;5.08;100.00;103170.09;5003778;28;20026;-79
2022/01/22 10:36:22;;;;;;;126.75;52.80;;;;;;;5.07;100.00;103169.28;5023595;28;20048;-79
2022/01/22 10:39:22;;;;;;;108.57;41.85;;;;;;;5.03;100.00;103164.34;5034865;28;20119;-78
2022/01/22 10:41:49;;;;;;;117.63;48.85;;;;;;;5.03;100.00;103166.91;5017243;28;20044;-79
2022/01/22 10:44:20;;;;;;;248.55;103.22;;;;;;;5.10;100.00;103160.59;5002105;28;20124;-79
2022/01/22 10:46:51;;;;;;;108.75;47.45;;;;;;;5.01;100.00;103166.97;5016643;28;20116;-79
2022/01/22 10:49:22;;;;;;;83.53;40.95;;;;;;;5.05;100.00;103168.50;5018524;28;20510;-79
2022/01/22 10:52:03;;;;;;;69.38;29.65;;;;;;;5.09;100.00;103174.38;5002571;28;20037;-79
2022/01/22 10:54:34;;;;;;;56.33;28.30;;;;;;;5.05;100.00;103176.22;5002548;28;20052;-79
2022/01/22 10:57:13;;;;;;;70.95;28.88;;;;;;;5.13;100.00;103175.06;5005492;28;20021;-79
2022/01/22 10:59:50;;;;;;;62.95;28.58;;;;;;;5.00;100.00;103172.16;5001031;28;20029;-79
2022/01/22 11:02:19;;;;;;;71.38;30.35;;;;;;;5.01;100.00;103168.66;5003356;28;20044;-79
2022/01/22 11:04:45;;;;;;;63.83;28.45;;;;;;;4.99;100.00;103173.03;5018681;28;20569;-80
2022/01/22 11:07:19;;;;;;;69.40;28.45;;;;;;;5.00;100.00;103169.59;5016959;28;20518;-79
2022/01/22 11:09:46;;;;;;;72.38;28.25;;;;;;;5.10;100.00;103176.03;5040976;28;20112;-79
2022/01/22 11:12:11;;;;;;;58.47;27.38;;;;;;;5.02;100.00;103180.66;5019298;28;20102;-79
2022/01/22 11:14:37;;;;;;;67.97;29.20;;;;;;;4.94;100.00;103177.56;5017269;28;20033;-78
2022/01/22 11:17:08;;;;;;;64.35;26.67;;;;;;;5.03;100.00;103175.44;5021678;28;20449;-79
2022/01/22 11:19:36;;;;;;;61.35;27.85;;;;;;;5.01;100.00;103176.38;4998815;28;20052;-79
2022/01/22 11:22:14;;;;;;;60.78;27.50;;;;;;;5.05;100.00;103185.69;5030305;28;20025;-79
2022/01/22 11:24:42;;;;;;;58.45;25.98;;;;;;;5.08;100.00;103188.09;5023977;28;20038;-80
2022/01/22 11:27:11;;;;;;;54.10;24.33;;;;;;;4.99;100.00;103180.75;5014318;28;20418;-79
2022/01/22 11:29:42;;;;;;;57.50;26.52;;;;;;;5.17;100.00;103174.06;5016989;28;20696;-80
2022/01/22 11:32:10;;;;;;;47.03;24.23;;;;;;;5.14;100.00;103172.44;5005052;28;20060;-80
2022/01/22 11:34:38;;;;;;;56.10;25.58;;;;;;;5.16;100.00;103175.78;5024562;28;20063;-79
2022/01/22 11:37:14;;;;;;;60.08;28.17;;;;;;;5.19;100.00;103167.94;4999488;28;20033;-80
2022/01/22 11:39:41;;;;;;;66.53;29.05;;;;;;;5.24;100.00;103165.19;4996892;28;20091;-79
2022/01/22 11:42:08;;;;;;;58.53;27.05;;;;;;;5.28;100.00;103164.16;5015522;28;20103;-79
2022/01/22 11:45:01;;;;;;;53.58;26.33;;;;;;;5.29;100.00;103170.94;5000903;28;20033;-79
2022/01/22 11:47:27;;;;;;;69.93;31.63;;;;;;;5.20;100.00;103169.63;5005357;28;20041;-80
2022/01/22 11:50:11;;;;;;;88.00;36.67;;;;;;;5.24;100.00;103167.75;5001086;28;20237;-79
2022/01/22 11:52:39;;;;;;;109.13;53.17;;;;;;;5.16;100.00;103156.94;4998674;28;20364;-79
2022/01/22 11:55:13;;;;;;;69.45;32.85;;;;;;;5.12;100.00;103163.09;5013101;28;20037;-80
2022/01/22 11:57:40;;;;;;;57.65;28.75;;;;;;;5.16;100.00;103165.50;5019450;28;20484;-79
2022/01/22 12:00:27;;;;;;;72.82;28.88;;;;;;;5.18;100.00;103168.00;5039273;28;20041;-79
2022/01/22 12:03:12;;;;;;;65.55;27.65;;;;;;;5.20;100.00;103172.19;5018039;28;20042;-80
2022/01/22 12:05:53;;;;;;;56.80;28.77;;;;;;;5.23;100.00;103155.78;5025323;28;20052;-80
2022/01/22 12:08:20;;;;;;;57.15;27.02;;;;;;;5.18;100.00;103163.69;5018077;28;20035;-79
2022/01/22 12:16:40;;;;;;;59.78;28.98;;;;;;;5.16;100.00;103155.22;5029247;28;20042;-79
2022/01/22 12:22:39;;;;;;;65.93;27.80;;;;;;;5.16;100.00;103157.78;5014392;28;20494;-78
2022/01/22 12:25:14;;;;;;;57.08;27.70;;;;;;;5.28;100.00;103160.75;5014698;28;20050;-79
2022/01/22 12:27:50;;;;;;;58.55;27.77;;;;;;;5.20;100.00;103168.78;5013014;28;20130;-79
2022/01/22 12:30:31;;;;;;;55.83;27.98;;;;;;;5.19;100.00;103160.22;5027806;28;20112;-79
2022/01/22 12:32:59;;;;;;;59.55;28.85;;;;;;;5.27;100.00;103149.59;5028752;28;20582;-79
2022/01/22 12:35:37;;;;;;;60.95;28.55;;;;;;;5.16;100.00;103151.78;5021556;28;20033;-79
2022/01/22 12:38:20;;;;;;;65.03;28.70;;;;;;;5.27;100.00;103152.19;5005366;28;20044;-79
2022/01/22 12:40:46;;;;;;;;;;;;;;;5.15;100.00;103150.13;5038114;28;20447;-79
2022/01/22 12:43:19;;;;;;;59.83;29.40;;;;;;;5.14;100.00;103157.00;5003397;28;19920;-80
2022/01/22 12:45:53;;;;;;;59.97;28.90;;;;;;;5.10;100.00;103152.88;5023447;28;20085;-79
2022/01/22 12:48:20;;;;;;;63.58;30.10;;;;;;;5.13;100.00;103157.91;5015902;28;20475;-79
2022/01/22 12:50:45;;;;;;;61.35;28.88;;;;;;;5.24;100.00;103155.72;5012984;28;20049;-79
2022/01/22 12:53:14;;;;;;;63.80;28.13;;;;;;;5.26;100.00;103151.34;5015596;28;20136;-79
2022/01/22 12:56:35;;;;;;;65.45;28.50;;;;;;;5.35;100.00;103149.28;5017764;28;20041;-79
2022/01/22 12:58:38;;;;;;;59.60;28.38;;;;;;;5.29;100.00;103152.94;5029881;28;20046;-79
2022/01/22 13:01:23;;;;;;;72.97;31.65;;;;;;;5.43;100.00;103149.81;5011398;28;20162;-79
2022/01/22 13:03:52;;;;;;;66.75;29.85;;;;;;;5.28;100.00;103145.31;5039910;28;20483;-79
2022/01/22 13:06:21;;;;;;;100.63;45.33;;;;;;;5.24;100.00;103149.75;5020238;28;20064;-79
2022/01/22 13:09:06;;;;;;;129.48;50.00;;;;;;;5.22;100.00;103144.66;5024664;28;20169;-80